Time;durP1;ratioP1;P1;durP2;ratioP2;P2;SDS_P1;SDS_P2;PMS_P1;PMS_P2;Temp;Humidity;BMP_temperature;BMP_pressure;BME280_temperature;BME280_humidity;BME280_pressure;Samples;Min_cycle;Max_cycle;Signal;HPM_P1;HPM_P2
2022/05/07 00:00:48;;;;;;;6.17;2.30;;;25.30;42.30;;;;;;5004539;28;88975;-67
2022/05/07 00:03:18;;;;;;;2.47;2.10;;;25.30;42.30;;;;;;5002078;28;91908;-66
2022/05/07 00:05:47;;;;;;;3.23;2.40;;;25.30;42.20;;;;;;5002441;28;90368;-68
2022/05/07 00:08:15;;;;;;;3.77;2.20;;;25.30;42.20;;;;;;5000793;28;88566;-67
2022/05/07 00:10:43;;;;;;;3.67;2.17;;;25.30;42.20;;;;;;5001359;28;88607;-66
2022/05/07 00:13:11;;;;;;;3.47;1.97;;;25.30;42.30;;;;;;5011336;28;90983;-66
2022/05/07 00:18:01;;;;;;;3.47;2.33;;;25.30;42.30;;;;;;5001007;28;89082;-67
2022/05/07 00:18:29;;;;;;;5.50;1.80;;;25.30;42.30;;;;;;5006709;28;89231;-67
2022/05/07 00:20:57;;;;;;;4.60;2.00;;;25.30;42.30;;;;;;5020381;28;88502;-66
2022/05/07 00:23:25;;;;;;;2.40;1.77;;;25.30;42.30;;;;;;5008884;28;93067;-67
2022/05/07 00:25:53;;;;;;;2.33;1.93;;;25.30;42.30;;;;;;5005182;28;88695;-67
2022/05/07 00:28:21;;;;;;;3.30;2.17;;;25.30;42.30;;;;;;4999780;28;88690;-67
2022/05/07 00:30:50;;;;;;;4.87;1.60;;;25.30;43.00;;;;;;5001910;28;88736;-66
2022/05/07 00:33:18;;;;;;;3.07;1.80;;;25.30;43.00;;;;;;5000325;28;93185;-66
2022/05/07 00:35:47;;;;;;;2.17;1.97;;;25.30;42.40;;;;;;4999948;28;90087;-67
2022/05/07 00:38:15;;;;;;;3.00;1.87;;;25.30;42.40;;;;;;5000062;28;88419;-67
2022/05/07 00:40:44;;;;;;;2.27;1.77;;;25.30;42.40;;;;;;4998219;28;88660;-67
2022/05/07 00:43:15;;;;;;;3.13;1.80;;;25.30;42.40;;;;;;5002277;28;89604;-66
2022/05/07 00:45:44;;;;;;;2.60;1.90;;;25.30;42.40;;;;;;4999481;28;88917;-67
2022/05/07 00:48:16;;;;;;;3.13;1.70;;;25.30;42.40;;;;;;4999282;28;88531;-67
2022/05/07 00:53:30;;;;;;;2.73;1.80;;;25.30;42.40;;;;;;5012630;28;89600;-67
2022/05/07 00:55:58;;;;;;;2.40;2.00;;;25.30;42.40;;;;;;5000411;28;89214;-68
2022/05/07 00:58:26;;;;;;;3.03;1.90;;;25.30;42.40;;;;;;5000269;28;88280;-66
2022/05/07 01:00:54;;;;;;;5.40;1.80;;;25.30;42.50;;;;;;5000624;28;88774;-67
2022/05/07 01:03:23;;;;;;;3.60;2.00;;;25.30;42.50;;;;;;4999473;28;89802;-67
2022/05/07 01:05:51;;;;;;;2.77;1.80;;;25.30;42.60;;;;;;4998947;28;90125;-67
2022/05/07 01:08:19;;;;;;;3.20;1.93;;;25.30;42.60;;;;;;4999126;28;89276;-67
2022/05/07 01:10:48;;;;;;;2.23;1.70;;;25.30;42.70;;;;;;4999435;28;88680;-67
2022/05/07 01:13:17;;;;;;;4.80;1.67;;;25.40;42.80;;;;;;5001938;28;89517;-67
2022/05/07 01:15:45;;;;;;;3.57;2.00;;;25.40;42.80;;;;;;5005235;28;88842;-67
2022/05/07 01:18:13;;;;;;;2.47;1.53;;;25.30;42.80;;;;;;4999134;28;88215;-66
2022/05/07 01:20:43;;;;;;;2.33;1.87;;;25.30;42.80;;;;;;5001895;28;88561;-67
2022/05/07 01:23:12;;;;;;;3.30;1.80;;;25.30;42.80;;;;;;5019080;28;90272;-67
2022/05/07 01:25:40;;;;;;;2.57;1.97;;;25.30;42.80;;;;;;5019010;28;88641;-67
2022/05/07 01:28:08;;;;;;;3.00;1.70;;;25.30;42.80;;;;;;5018382;28;88443;-66
2022/05/07 01:30:36;;;;;;;2.27;1.47;;;25.30;42.90;;;;;;5018378;28;88620;-67
2022/05/07 01:33:04;;;;;;;2.80;1.87;;;25.30;42.90;;;;;;5018753;28;90647;-67
2022/05/07 01:35:32;;;;;;;2.60;1.70;;;25.30;42.90;;;;;;4999102;28;88600;-67
2022/05/07 01:38:02;;;;;;;1.90;1.60;;;25.30;42.90;;;;;;4998431;28;91693;-67
2022/05/07 01:40:31;;;;;;;3.83;2.00;;;25.30;42.90;;;;;;4999063;28;88615;-66
2022/05/07 01:42:59;;;;;;;3.60;2.23;;;25.30;42.90;;;;;;4998711;28;90480;-67
2022/05/07 01:45:27;;;;;;;6.47;1.90;;;25.30;42.90;;;;;;4998962;28;89051;-67
2022/05/07 01:48:09;;;;;;;2.40;1.90;;;25.30;43.00;;;;;;4999307;28;88311;-67
2022/05/07 01:50:38;;;;;;;3.97;1.80;;;25.30;43.00;;;;;;4999065;28;88421;-67
2022/05/07 01:53:08;;;;;;;2.67;1.40;;;25.20;42.90;;;;;;5004785;28;89280;-67
2022/05/07 01:55:37;;;;;;;2.70;1.57;;;25.30;43.10;;;;;;4999051;28;89640;-67
2022/05/07 01:58:05;;;;;;;3.50;2.00;;;25.30;43.10;;;;;;5000419;28;90392;-67
2022/05/07 02:00:34;;;;;;;4.30;1.87;;;25.20;43.00;;;;;;5001330;28;88677;-66
2022/05/07 02:03:02;;;;;;;5.63;1.77;;;25.20;43.10;;;;;;4999016;28;89579;-66
2022/05/07 02:05:30;;;;;;;2.10;1.60;;;25.20;43.10;;;;;;4998965;28;90350;-66
2022/05/07 02:07:59;;;;;;;1.80;1.60;;;25.20;43.10;;;;;;4998840;28;88442;-66
2022/05/07 02:10:27;;;;;;;2.30;1.60;;;25.20;43.10;;;;;;4999252;28;88508;-67
2022/05/07 02:12:57;;;;;;;3.03;1.60;;;25.20;43.10;;;;;;4998802;28;89319;-67
2022/05/07 02:15:26;;;;;;;3.33;2.07;;;25.20;43.10;;;;;;4998193;28;91464;-67
2022/05/07 02:17:54;;;;;;;6.13;1.87;;;25.20;43.10;;;;;;4997513;28;88448;-66
2022/05/07 02:20:22;;;;;;;2.67;1.67;;;25.20;43.20;;;;;;4996710;28;88969;-67
2022/05/07 02:22:53;;;;;;;2.40;2.07;;;25.20;43.20;;;;;;4998713;28;89347;-67
2022/05/07 02:25:22;;;;;;;3.37;1.80;;;25.20;43.20;;;;;;5006160;28;88610;-67
2022/05/07 02:27:50;;;;;;;2.77;1.57;;;25.20;43.20;;;;;;4999917;28;88780;-67
2022/05/07 02:30:19;;;;;;;3.90;2.10;;;25.20;43.30;;;;;;4998995;28;88542;-67
2022/05/07 02:32:47;;;;;;;4.27;1.57;;;25.20;43.30;;;;;;4997796;28;91694;-67
2022/05/07 02:35:16;;;;;;;2.23;1.77;;;25.20;43.30;;;;;;5000360;28;90146;-66
2022/05/07 02:37:44;;;;;;;4.53;1.90;;;25.10;43.30;;;;;;4999012;28;88503;-66
2022/05/07 02:40:13;;;;;;;4.07;1.80;;;25.20;43.30;;;;;;4998830;28;88483;-67
2022/05/07 02:42:40;;;;;;;2.43;1.80;;;25.20;43.30;;;;;;5001235;28;90317;-67
2022/05/07 02:45:09;;;;;;;2.70;1.83;;;25.20;43.30;;;;;;4997944;28;93062;-67
2022/05/07 02:47:39;;;;;;;2.10;1.90;;;25.20;43.40;;;;;;5001700;28;88978;-66
2022/05/07 02:50:08;;;;;;;2.40;1.70;;;25.10;43.40;;;;;;4997421;28;88638;-66
2022/05/07 02:52:37;;;;;;;2.67;1.57;;;25.10;43.40;;;;;;5001273;28;90302;-67
2022/05/07 02:55:06;;;;;;;2.53;1.73;;;25.20;43.40;;;;;;5001443;28;90673;-66
2022/05/07 02:57:34;;;;;;;2.80;1.90;;;25.10;43.40;;;;;;5003843;28;88846;-66
2022/05/07 03:00:02;;;;;;;2.33;1.50;;;25.10;43.40;;;;;;5001664;28;88405;-66
2022/05/07 03:02:31;;;;;;;2.93;1.80;;;25.10;43.40;;;;;;5001016;28;90838;-66
2022/05/07 03:05:01;;;;;;;3.83;1.97;;;25.10;43.40;;;;;;5001343;28;90891;-67
2022/05/07 03:07:29;;;;;;;4.73;2.47;;;25.10;43.50;;;;;;5000702;28;88891;-68
2022/05/07 03:09:57;;;;;;;2.13;1.47;;;24.90;43.40;;;;;;5001284;28;88655;-67
2022/05/07 03:12:27;;;;;;;7.20;2.80;;;25.10;43.50;;;;;;5001275;28;91335;-66
2022/05/07 03:14:55;;;;;;;5.77;1.77;;;25.10;43.50;;;;;;5003715;28;92040;-66
2022/05/07 03:17:26;;;;;;;5.80;2.40;;;25.00;43.50;;;;;;5001003;28;88762;-67
2022/05/07 03:19:54;;;;;;;7.30;2.33;;;25.10;43.60;;;;;;5000898;28;88421;-66
2022/05/07 03:22:24;;;;;;;4.20;2.23;;;25.10;43.60;;;;;;5001325;28;90660;-67
2022/05/07 03:24:52;;;;;;;4.33;2.40;;;25.00;43.50;;;;;;5002829;28;89737;-66
2022/05/07 03:27:20;;;;;;;5.73;2.30;;;25.00;43.50;;;;;;5001263;28;89817;-67
2022/05/07 03:29:49;;;;;;;3.80;1.70;;;25.00;43.60;;;;;;5001757;28;88473;-67
2022/05/07 03:32:17;;;;;;;3.13;2.23;;;25.00;43.60;;;;;;5000491;28;93063;-66
2022/05/07 03:34:45;;;;;;;5.07;2.00;;;25.00;43.70;;;;;;5000724;28;88794;-66
2022/05/07 03:37:14;;;;;;;4.10;2.33;;;25.00;43.70;;;;;;5000506;28;88649;-67
2022/05/07 03:39:44;;;;;;;3.37;1.87;;;25.00;43.70;;;;;;5001824;28;88568;-67
2022/05/07 03:42:12;;;;;;;7.40;2.20;;;25.00;43.70;;;;;;5005114;28;89639;-67
2022/05/07 03:44:40;;;;;;;2.77;2.03;;;25.00;43.70;;;;;;5003409;28;89739;-67
2022/05/07 03:47:08;;;;;;;2.63;1.80;;;25.00;43.70;;;;;;5000418;28;88381;-67
2022/05/07 03:49:36;;;;;;;4.23;2.20;;;25.00;43.70;;;;;;5000903;28;88290;-66
2022/05/07 03:54:53;;;;;;;5.77;1.97;;;25.00;43.70;;;;;;5010126;28;90033;-66
2022/05/07 03:57:21;;;;;;;4.27;2.10;;;25.00;43.80;;;;;;5001027;28;88711;-66
2022/05/07 03:59:49;;;;;;;3.70;1.73;;;25.00;43.80;;;;;;5002997;28;88460;-66
2022/05/07 04:02:17;;;;;;;3.90;2.10;;;24.90;43.70;;;;;;5000716;28;90628;-66
2022/05/07 04:04:47;;;;;;;2.07;1.90;;;24.90;43.70;;;;;;5000500;28;89296;-66
2022/05/07 04:07:15;;;;;;;6.07;2.37;;;24.90;43.70;;;;;;5000175;28;88565;-66
2022/05/07 04:09:43;;;;;;;2.90;2.10;;;24.90;43.70;;;;;;5003664;28;88651;-66
2022/05/07 04:12:15;;;;;;;4.83;2.80;;;24.90;43.70;;;;;;5000232;28;91291;-66
2022/05/07 04:14:43;;;;;;;4.80;2.40;;;24.90;43.80;;;;;;4999857;28;89962;-66
2022/05/07 04:17:11;;;;;;;4.53;1.90;;;24.90;43.80;;;;;;5007335;28;88399;-67
2022/05/07 04:19:39;;;;;;;3.60;1.97;;;24.90;43.80;;;;;;5017130;27;89354;-66
2022/05/07 04:22:07;;;;;;;7.70;2.53;;;24.90;43.80;;;;;;5000248;28;89606;-67
2022/05/07 04:24:36;;;;;;;3.43;2.43;;;24.90;43.80;;;;;;5000692;28;89027;-67
2022/05/07 04:27:05;;;;;;;3.53;2.13;;;24.90;43.80;;;;;;5004855;28;88715;-67
2022/05/07 04:29:40;;;;;;;4.07;2.50;;;24.90;43.80;;;;;;5000284;28;88663;-66
2022/05/07 04:32:09;;;;;;;4.57;2.40;;;24.80;43.80;;;;;;5008668;28;89400;-67
2022/05/07 04:34:37;;;;;;;4.70;2.37;;;24.90;43.90;;;;;;5019244;28;88981;-66
2022/05/07 04:37:05;;;;;;;4.30;2.30;;;24.90;43.80;;;;;;5019049;28;88920;-67
2022/05/07 04:39:34;;;;;;;4.43;2.20;;;24.90;43.90;;;;;;5017607;28;88396;-66
2022/05/07 04:42:02;;;;;;;3.33;2.13;;;24.80;43.80;;;;;;5000101;28;91655;-67
2022/05/07 04:44:30;;;;;;;5.80;2.87;;;24.80;43.90;;;;;;5002927;28;91534;-66
2022/05/07 04:46:59;;;;;;;5.33;2.60;;;24.80;43.90;;;;;;4999288;28;88656;-66
2022/05/07 04:49:28;;;;;;;4.87;2.50;;;24.80;43.80;;;;;;4999269;28;88389;-67
2022/05/07 04:51:56;;;;;;;4.93;2.43;;;24.80;43.90;;;;;;4999624;28;89479;-67
2022/05/07 04:54:24;;;;;;;2.93;2.47;;;24.80;43.90;;;;;;5002611;28;89139;-66
2022/05/07 04:56:53;;;;;;;5.67;2.23;;;24.80;43.90;;;;;;5002316;28;89266;-66
2022/05/07 04:59:21;;;;;;;4.07;2.60;;;24.80;43.90;;;;;;5000188;28;88458;-67
2022/05/07 05:01:49;;;;;;;3.60;2.10;;;24.80;44.60;;;;;;5000309;28;89661;-67
2022/05/07 05:04:19;;;;;;;4.70;2.30;;;24.80;43.90;;;;;;4999465;28;89395;-67
2022/05/07 05:06:47;;;;;;;6.13;2.70;;;24.80;43.90;;;;;;5016639;28;88702;-67
2022/05/07 05:09:15;;;;;;;4.07;2.20;;;24.80;43.90;;;;;;5019006;28;88641;-67
2022/05/07 05:11:43;;;;;;;4.93;2.47;;;24.80;44.00;;;;;;5013377;28;92168;-67
2022/05/07 05:16:53;;;;;;;4.57;2.40;;;24.80;44.00;;;;;;4999084;28;88745;-66
2022/05/07 05:19:23;;;;;;;5.27;2.23;;;24.80;44.00;;;;;;5001605;28;88247;-67
2022/05/07 05:21:53;;;;;;;4.23;2.50;;;24.80;44.00;;;;;;4999027;28;90672;-66
2022/05/07 05:24:23;;;;;;;3.57;2.33;;;24.70;43.90;;;;;;4999071;28;90049;-67
2022/05/07 05:26:53;;;;;;;3.07;2.30;;;24.80;44.00;;;;;;4998932;28;88441;-66
2022/05/07 05:29:23;;;;;;;4.27;2.80;;;24.80;44.00;;;;;;5001377;28;88704;-66
2022/05/07 05:31:51;;;;;;;5.40;2.70;;;24.80;44.00;;;;;;4999811;28;90274;-66
2022/05/07 05:34:20;;;;;;;6.37;2.43;;;24.70;43.90;;;;;;4999659;28;88866;-73
2022/05/07 05:36:49;;;;;;;4.43;2.53;;;24.70;43.90;;;;;;4999385;28;91040;-73
2022/05/07 05:39:17;;;;;;;3.37;2.43;;;24.70;43.90;;;;;;4999789;28;89353;-73
2022/05/07 05:41:45;;;;;;;4.30;2.20;;;24.80;44.00;;;;;;4999556;28;92452;-73
2022/05/07 05:44:13;;;;;;;8.00;2.20;;;24.80;44.00;;;;;;5001970;28;90088;-73
2022/05/07 05:46:41;;;;;;;3.03;2.17;;;24.80;43.90;;;;;;5001399;28;89120;-73
2022/05/07 05:49:09;;;;;;;4.37;2.03;;;24.80;43.90;;;;;;4998885;28;88584;-73
2022/05/07 05:51:37;;;;;;;4.47;2.70;;;24.80;43.90;;;;;;4999510;28;91844;-75
2022/05/07 05:54:06;;;;;;;4.40;2.20;;;24.80;43.90;;;;;;5001126;28;88775;-74
2022/05/07 05:56:34;;;;;;;6.73;2.67;;;24.80;43.90;;;;;;4999111;28;89644;-73
2022/05/07 05:59:02;;;;;;;3.30;2.13;;;24.90;43.90;;;;;;5010446;28;88522;-73
2022/05/07 06:01:30;;;;;;;2.93;2.23;;;24.90;43.90;;;;;;4998194;28;89710;-74
2022/05/07 06:03:58;;;;;;;3.97;2.47;;;24.90;43.90;;;;;;4998704;28;89443;-73
2022/05/07 06:06:27;;;;;;;5.87;2.43;;;24.90;43.90;;;;;;4998524;28;91236;-73
2022/05/07 06:08:55;;;;;;;4.60;2.40;;;24.90;43.90;;;;;;5001246;28;88647;-73
2022/05/07 06:11:25;;;;;;;5.77;2.00;;;24.90;43.80;;;;;;5002170;28;92347;-73
2022/05/07 06:13:53;;;;;;;4.20;2.80;;;25.00;43.90;;;;;;4998765;28;88967;-73
2022/05/07 06:16:24;;;;;;;3.40;2.20;;;25.10;43.80;;;;;;5015450;28;88397;-72
2022/05/07 06:18:53;;;;;;;15.67;2.60;;;25.10;43.90;;;;;;5018419;28;88595;-73
2022/05/07 06:21:21;;;;;;;5.83;2.20;;;25.10;43.80;;;;;;5018133;28;90061;-73
2022/05/07 06:23:50;;;;;;;4.30;2.33;;;25.20;43.90;;;;;;5005040;28;89613;-72
2022/05/07 06:29:05;;;;;;;3.57;2.30;;;25.20;44.10;;;;;;5003114;28;89255;-72
2022/05/07 06:31:33;;;;;;;5.77;2.67;;;25.20;44.70;;;;;;5002042;28;89241;-72
2022/05/07 06:34:06;;;;;;;5.47;2.17;;;25.30;44.10;;;;;;5008502;28;89450;-72
2022/05/07 06:36:36;;;;;;;3.80;2.23;;;25.30;44.10;;;;;;5014275;28;88440;-72
2022/05/07 06:39:04;;;;;;;4.03;2.37;;;25.30;44.20;;;;;;5002342;28;88858;-71
2022/05/07 06:41:37;;;;;;;3.73;2.13;;;25.30;44.20;;;;;;5001817;28;89652;-72
2022/05/07 06:44:06;;;;;;;6.17;2.83;;;25.30;44.20;;;;;;5001752;28;92249;-72
2022/05/07 06:46:37;;;;;;;6.87;2.63;;;25.40;44.30;;;;;;5007588;28;88499;-72
2022/05/07 06:49:06;;;;;;;2.77;1.90;;;25.40;44.40;;;;;;5013241;28;88568;-72
2022/05/07 06:51:35;;;;;;;3.50;2.23;;;25.40;44.30;;;;;;5004152;28;88664;-72
2022/05/07 06:54:03;;;;;;;4.73;2.60;;;25.40;44.40;;;;;;5004293;28;90382;-72
2022/05/07 06:56:31;;;;;;;3.83;2.10;;;25.50;44.50;;;;;;5001496;28;91683;-72
2022/05/07 06:58:59;;;;;;;6.37;2.33;;;25.40;44.40;;;;;;5002075;28;88358;-72
2022/05/07 07:01:29;;;;;;;2.63;2.20;;;25.50;44.50;;;;;;5001974;28;89471;-73
2022/05/07 07:03:58;;;;;;;4.03;2.20;;;25.40;44.40;;;;;;5002788;28;90134;-72
2022/05/07 07:06:26;;;;;;;4.00;2.57;;;25.50;44.50;;;;;;5002626;28;88235;-72
2022/05/07 07:08:54;;;;;;;5.33;2.27;;;25.50;44.60;;;;;;5001812;28;88469;-72
2022/05/07 07:11:22;;;;;;;4.43;2.30;;;25.40;44.50;;;;;;5001209;28;89655;-73
2022/05/07 07:13:50;;;;;;;5.60;2.10;;;25.40;44.50;;;;;;5001355;28;88366;-72
2022/05/07 07:16:18;;;;;;;3.47;2.37;;;25.40;44.60;;;;;;5003449;28;88451;-72
2022/05/07 07:18:48;;;;;;;5.53;2.27;;;25.40;44.60;;;;;;5001478;28;88688;-72
2022/05/07 07:21:16;;;;;;;6.50;1.93;;;25.40;44.60;;;;;;5007653;28;92518;-72
2022/05/07 07:23:44;;;;;;;4.67;2.20;;;25.40;44.70;;;;;;5004701;28;92586;-72
2022/05/07 07:26:12;;;;;;;3.10;2.00;;;25.50;44.70;;;;;;5000003;28;91242;-73
2022/05/07 07:28:40;;;;;;;4.23;2.27;;;25.50;44.70;;;;;;5000902;28;88387;-72
2022/05/07 07:31:08;;;;;;;4.33;2.03;;;25.50;44.70;;;;;;5016983;28;89644;-72
2022/05/07 07:33:37;;;;;;;2.80;1.80;;;25.50;44.70;;;;;;5001027;28;88969;-72
2022/05/07 07:36:07;;;;;;;3.83;2.00;;;25.50;44.70;;;;;;5006442;28;88524;-72
2022/05/07 07:38:35;;;;;;;4.17;1.83;;;25.50;44.70;;;;;;5014120;28;88476;-72
2022/05/07 07:41:04;;;;;;;3.23;2.10;;;25.50;44.70;;;;;;5015726;28;90694;-71
2022/05/07 07:43:31;;;;;;;3.67;2.30;;;25.50;44.80;;;;;;5015228;28;89204;-73
2022/05/07 07:48:46;;;;;;;2.60;1.47;;;25.50;44.80;;;;;;5011363;28;89712;-72
2022/05/07 07:51:16;;;;;;;1.93;1.73;;;25.50;44.70;;;;;;5004856;28;89698;-72
2022/05/07 07:53:44;;;;;;;2.20;1.63;;;25.50;44.80;;;;;;5012810;28;90082;-73
2022/05/07 07:56:12;;;;;;;5.23;2.43;;;25.50;44.80;;;;;;5005047;28;88497;-74
2022/05/07 07:58:40;;;;;;;5.43;2.53;;;25.50;44.80;;;;;;5004404;28;88633;-73
2022/05/07 08:01:08;;;;;;;3.83;2.37;;;25.50;44.80;;;;;;5003771;28;89423;-72
2022/05/07 08:03:36;;;;;;;5.10;2.73;;;25.50;44.80;;;;;;5027655;27;89986;-73
2022/05/07 08:06:04;;;;;;;6.07;3.70;;;25.50;44.80;;;;;;5005416;28;88430;-73
2022/05/07 08:14:04;;;;;;;3.43;2.53;;;25.50;45.00;;;;;;5013440;28;89544;-72
2022/05/07 08:16:32;;;;;;;6.43;3.00;;;25.60;45.00;;;;;;5010044;28;88968;-72
2022/05/07 08:19:00;;;;;;;4.40;2.70;;;25.60;45.10;;;;;;5002352;28;88635;-72
2022/05/07 08:21:28;;;;;;;7.00;3.47;;;25.60;45.10;;;;;;4999837;28;90087;-71
2022/05/07 08:23:58;;;;;;;5.53;3.00;;;25.60;45.20;;;;;;5007896;28;88756;-71
2022/05/07 08:26:26;;;;;;;4.77;2.90;;;25.60;45.20;;;;;;5000919;28;89143;-71
2022/05/07 08:28:54;;;;;;;4.83;2.90;;;25.60;45.20;;;;;;5006094;28;89777;-71
2022/05/07 08:31:23;;;;;;;4.07;3.50;;;25.60;45.20;;;;;;5002703;28;90373;-72
2022/05/07 08:33:51;;;;;;;5.70;2.83;;;25.50;45.20;;;;;;5009352;28;90942;-72
2022/05/07 08:36:19;;;;;;;6.13;3.67;;;25.60;45.30;;;;;;5015040;28;88975;-72
2022/05/07 08:38:48;;;;;;;4.60;3.07;;;25.60;45.30;;;;;;5011967;28;90068;-72
2022/05/07 08:41:18;;;;;;;6.47;3.03;;;25.60;45.30;;;;;;5003703;28;90600;-72
2022/05/07 08:43:46;;;;;;;4.17;3.10;;;25.50;46.00;;;;;;5002091;28;91807;-72
2022/05/07 08:46:16;;;;;;;6.40;3.13;;;25.60;45.30;;;;;;5005581;28;88416;-72
2022/05/07 08:48:46;;;;;;;4.83;3.00;;;25.50;45.30;;;;;;5007684;28;88678;-72
2022/05/07 08:51:15;;;;;;;3.87;3.03;;;25.60;46.00;;;;;;5002843;28;90081;-72
2022/05/07 08:53:44;;;;;;;4.73;2.57;;;25.50;45.20;;;;;;5012383;28;88890;-72
2022/05/07 08:56:12;;;;;;;3.87;2.50;;;25.50;45.20;;;;;;5014455;28;88924;-73
2022/05/07 08:58:46;;;;;;;6.60;2.77;;;25.50;45.20;;;;;;5013364;28;88701;-71
2022/05/07 09:01:14;;;;;;;3.83;2.43;;;25.40;45.20;;;;;;5014629;28;91922;-72
2022/05/07 09:03:44;;;;;;;4.97;2.70;;;25.40;45.20;;;;;;5015345;28;89193;-72
2022/05/07 09:06:22;;;;;;;3.83;2.23;;;25.40;45.20;;;;;;5012122;28;91359;-72
2022/05/07 09:08:53;;;;;;;7.33;2.80;;;25.30;45.10;;;;;;5004679;28;88656;-72
2022/05/07 09:11:21;;;;;;;3.97;2.57;;;25.30;45.10;;;;;;4999621;28;94497;-73
2022/05/07 09:14:01;;;;;;;4.97;2.83;;;25.40;45.20;;;;;;5010155;28;89175;-72
2022/05/07 09:16:42;;;;;;;4.63;2.73;;;25.30;45.00;;;;;;4998117;28;88524;-72
2022/05/07 09:19:20;;;;;;;4.50;2.90;;;25.30;45.00;;;;;;5008051;28;88811;-72
2022/05/07 09:21:48;;;;;;;6.07;2.87;;;25.30;45.00;;;;;;5015081;28;90112;-73
2022/05/07 09:24:17;;;;;;;4.10;2.97;;;25.30;44.90;;;;;;5016431;28;90725;-72
2022/05/07 09:26:47;;;;;;;5.53;3.37;;;25.30;44.90;;;;;;5006363;28;90022;-72
2022/05/07 09:29:18;;;;;;;6.13;3.50;;;25.40;45.00;;;;;;5003706;28;88370;-71
2022/05/07 09:31:48;;;;;;;5.27;3.40;;;25.40;44.90;;;;;;4997841;28;90781;-70
2022/05/07 09:37:13;;;;;;;5.00;3.03;;;25.40;44.80;;;;;;5010353;28;89144;-72
2022/05/07 09:39:46;;;;;;;4.10;3.10;;;25.30;44.70;;;;;;5014965;28;88690;-72
2022/05/07 09:42:14;;;;;;;6.37;3.40;;;25.30;44.70;;;;;;5019633;28;88541;-72
2022/05/07 09:44:44;;;;;;;8.30;3.60;;;25.30;44.70;;;;;;5009044;28;90138;-70
2022/05/07 09:47:12;;;;;;;6.30;3.90;;;25.30;44.70;;;;;;5018736;28;88538;-70
2022/05/07 09:50:19;;;;;;;6.43;3.60;;;25.40;44.70;;;;;;5017687;28;88348;-70
2022/05/07 09:52:30;;;;;;;7.00;4.13;;;25.40;44.70;;;;;;5007206;28;89502;-69
2022/05/07 09:57:44;;;;;;;7.60;3.87;;;25.40;44.70;;;;;;5008422;28;88667;-67
2022/05/07 10:00:14;;;;;;;6.37;3.63;;;25.40;44.70;;;;;;5006390;28;88901;-68
2022/05/07 10:02:56;;;;;;;8.23;4.13;;;25.40;44.70;;;;;;5011921;28;88563;-68
2022/05/07 10:05:46;;;;;;;10.03;5.10;;;25.40;44.80;;;;;;5013154;28;88981;-67
2022/05/07 10:08:22;;;;;;;9.77;4.93;;;25.40;44.70;;;;;;5008071;28;88783;-68
2022/05/07 10:10:51;;;;;;;7.27;3.97;;;25.40;44.80;;;;;;5011423;28;88597;-67
2022/05/07 10:13:19;;;;;;;10.37;5.83;;;25.40;44.80;;;;;;5012323;28;90205;-68
2022/05/07 10:15:58;;;;;;;10.47;5.67;;;25.50;44.90;;;;;;5011866;28;88827;-67
2022/05/07 10:18:34;;;;;;;9.80;4.63;;;25.40;44.80;;;;;;5010749;28;89024;-68
2022/05/07 10:21:11;;;;;;;10.67;6.00;;;25.50;44.90;;;;;;5008347;28;88652;-67
2022/05/07 10:23:49;;;;;;;7.80;5.13;;;25.40;44.80;;;;;;5012448;28;89643;-69
2022/05/07 10:26:17;;;;;;;8.53;5.97;;;25.50;44.80;;;;;;5014815;28;89554;-69
2022/05/07 10:28:45;;;;;;;8.37;5.07;;;25.50;44.80;;;;;;5012573;28;88747;-69
2022/05/07 10:31:21;;;;;;;6.83;4.70;;;25.50;44.70;;;;;;4997805;28;88699;-69
2022/05/07 10:33:49;;;;;;;8.93;4.60;;;25.50;44.70;;;;;;4998982;28;90864;-69
2022/05/07 10:36:17;;;;;;;5.73;4.03;;;25.50;44.70;;;;;;4998994;28;90104;-69
2022/05/07 10:38:46;;;;;;;9.73;4.57;;;25.60;44.70;;;;;;4999632;28;88354;-69
2022/05/07 10:41:23;;;;;;;6.10;4.70;;;25.60;44.70;;;;;;5000524;28;88515;-69
2022/05/07 10:44:02;;;;;;;8.53;4.27;;;25.50;44.70;;;;;;5001896;28;89642;-69
2022/05/07 10:46:40;;;;;;;6.57;4.10;;;25.50;44.70;;;;;;4998906;28;92131;-70
2022/05/07 10:49:08;;;;;;;9.17;4.30;;;25.50;44.60;;;;;;5000574;28;88901;-70
2022/05/07 10:51:37;;;;;;;7.37;4.00;;;25.60;44.70;;;;;;5003592;28;88656;-70
2022/05/07 10:54:19;;;;;;;6.47;4.33;;;25.60;44.70;;;;;;5004367;28;91278;-70
2022/05/07 10:56:48;;;;;;;8.03;3.67;;;25.50;44.70;;;;;;5014890;28;90329;-70
2022/05/07 10:59:16;;;;;;;5.77;3.97;;;25.50;44.70;;;;;;5011863;28;88700;-70
2022/05/07 11:01:48;;;;;;;6.87;4.40;;;25.50;44.80;;;;;;5010710;28;89332;-70
2022/05/07 11:04:18;;;;;;;5.37;3.60;;;25.50;44.80;;;;;;5012511;28;91170;-70
2022/05/07 11:06:47;;;;;;;5.73;4.10;;;25.60;44.90;;;;;;5003251;28;91806;-69
2022/05/07 11:09:16;;;;;;;7.40;4.03;;;25.60;44.90;;;;;;5001861;28;89710;-71
2022/05/07 11:11:45;;;;;;;6.87;4.57;;;25.60;44.80;;;;;;5013160;28;88610;-70
2022/05/07 11:14:20;;;;;;;6.80;4.60;;;25.70;44.90;;;;;;5014948;28;91116;-68
2022/05/07 11:16:50;;;;;;;29.23;18.23;;;25.70;45.60;;;;;;5017222;28;89316;-69
2022/05/07 11:19:25;;;;;;;278.93;101.43;;;25.80;45.00;;;;;;5018313;28;91759;-70
2022/05/07 11:21:53;;;;;;;174.73;68.37;;;25.90;45.20;;;;;;5017135;28;88653;-69
2022/05/07 11:24:21;;;;;;;114.23;50.90;;;26.00;45.40;;;;;;5015039;28;92949;-67
2022/05/07 11:26:51;;;;;;;92.70;45.83;;;26.00;45.40;;;;;;5019316;28;90125;-69
2022/05/07 11:29:19;;;;;;;66.80;34.50;;;26.10;45.40;;;;;;5014660;28;88587;-72
2022/05/07 11:31:56;;;;;;;55.77;27.53;;;26.10;45.50;;;;;;5009463;28;88516;-70
2022/05/07 11:34:32;;;;;;;51.70;23.73;;;26.10;45.50;;;;;;5002560;28;89639;-70
2022/05/07 11:37:13;;;;;;;34.70;17.40;;;26.10;45.50;;;;;;5002186;28;90958;-68
2022/05/07 11:39:52;;;;;;;31.30;16.40;;;26.10;45.50;;;;;;4998713;28;91166;-68
2022/05/07 11:42:30;;;;;;;19.67;12.27;;;26.10;45.60;;;;;;5001974;28;88949;-68
2022/05/07 11:45:27;;;;;;;20.20;10.07;;;26.10;45.60;;;;;;5000259;28;90249;-68
2022/05/07 11:47:59;;;;;;;18.90;9.40;;;26.10;45.50;;;;;;5016133;28;91350;-68
2022/05/07 11:50:29;;;;;;;16.23;8.07;;;26.10;45.40;;;;;;4999092;28;88965;-67
2022/05/07 11:52:57;;;;;;;13.63;6.97;;;26.00;45.40;;;;;;5016786;28;88924;-68
2022/05/07 11:55:26;;;;;;;9.50;5.87;;;26.00;45.40;;;;;;5008397;28;90515;-67
2022/05/07 11:57:54;;;;;;;9.13;5.80;;;25.90;45.30;;;;;;5000218;28;93173;-68
2022/05/07 12:00:24;;;;;;;9.37;4.93;;;25.90;45.20;;;;;;5008927;28;88514;-69
2022/05/07 12:02:56;;;;;;;7.53;4.17;;;25.90;45.20;;;;;;5005834;28;89356;-67
2022/05/07 12:05:26;;;;;;;6.10;4.57;;;25.90;45.20;;;;;;5003830;28;90641;-69
2022/05/07 12:07:54;;;;;;;5.57;3.60;;;25.90;45.20;;;;;;5002498;28;88498;-70
2022/05/07 12:10:23;;;;;;;9.17;4.40;;;25.90;45.10;;;;;;4999628;28;88928;-69
2022/05/07 12:12:51;;;;;;;6.67;3.33;;;26.00;45.10;;;;;;5002607;28;88921;-70
2022/05/07 12:17:52;;;;;;;3.80;2.77;;;25.90;45.00;;;;;;5002474;28;92169;-69
2022/05/07 12:18:07;;;;;;;5.43;3.33;;;25.90;44.90;;;;;;5001368;28;91343;-69
2022/05/07 12:20:37;;;;;;;5.83;3.07;;;25.90;44.90;;;;;;5002378;28;89180;-69
2022/05/07 12:31:22;;;;;;;4.60;2.60;;;25.90;44.80;;;;;;5004019;28;89331;-69
2022/05/07 12:33:50;;;;;;;8.43;3.27;;;25.90;44.80;;;;;;5000284;28;88684;-69
2022/05/07 12:36:19;;;;;;;4.13;2.80;;;25.90;44.80;;;;;;5000542;28;89315;-69
2022/05/07 12:38:47;;;;;;;6.60;2.80;;;25.90;44.80;;;;;;5000324;28;89194;-69
2022/05/07 12:41:15;;;;;;;4.13;2.70;;;25.90;44.80;;;;;;5002367;28;88499;-69
2022/05/07 12:43:43;;;;;;;3.43;2.30;;;25.90;44.70;;;;;;5007174;28;89198;-69
2022/05/07 12:46:11;;;;;;;3.43;2.33;;;25.90;44.70;;;;;;4999948;28;90677;-69
2022/05/07 12:48:39;;;;;;;3.90;2.70;;;25.90;44.70;;;;;;5001603;28;90035;-69
2022/05/07 12:51:08;;;;;;;7.70;2.93;;;25.90;44.70;;;;;;5007027;28;89848;-68
2022/05/07 12:53:37;;;;;;;8.40;3.47;;;25.90;44.70;;;;;;5002115;28;89851;-69
2022/05/07 12:56:05;;;;;;;3.17;2.70;;;25.90;44.70;;;;;;4999483;28;90739;-69
2022/05/07 12:58:33;;;;;;;6.73;2.80;;;25.90;44.60;;;;;;4999652;28;89588;-68
2022/05/07 13:01:01;;;;;;;3.53;2.60;;;26.00;44.60;;;;;;5011873;28;88779;-68
2022/05/07 13:03:30;;;;;;;6.57;3.67;;;26.00;44.60;;;;;;4999469;28;88627;-69
2022/05/07 13:05:58;;;;;;;5.23;3.37;;;26.00;44.50;;;;;;4999739;28;90471;-68
2022/05/07 13:08:26;;;;;;;8.23;2.97;;;26.00;44.50;;;;;;5002499;28;93352;-69
2022/05/07 13:10:55;;;;;;;5.07;3.13;;;26.00;44.50;;;;;;5001751;28;88932;-68
2022/05/07 13:13:24;;;;;;;6.80;3.13;;;26.00;44.50;;;;;;4999288;28;88513;-69
2022/05/07 13:15:53;;;;;;;6.13;3.50;;;26.00;44.60;;;;;;5000487;28;91752;-69
2022/05/07 13:18:22;;;;;;;4.47;2.93;;;26.00;44.50;;;;;;4999004;28;88942;-69
2022/05/07 13:20:53;;;;;;;5.83;3.07;;;26.00;44.60;;;;;;5000578;28;88541;-69
2022/05/07 13:23:22;;;;;;;3.30;2.33;;;26.00;44.50;;;;;;4999812;28;88654;-69
2022/05/07 13:25:50;;;;;;;4.13;2.63;;;26.10;44.50;;;;;;5003687;28;89949;-68
2022/05/07 13:28:23;;;;;;;4.97;2.53;;;26.10;44.50;;;;;;5000430;28;90229;-73
2022/05/07 13:30:56;;;;;;;6.37;2.93;;;26.00;44.50;;;;;;5003812;28;88769;-73